Balmaceda, Balmaceda Airport (SCBA)

NameBalmaceda Airport
CityBalmaceda
CountryChile
ICAOSCBA
IATABBA
Altitude525 m
CoordinatesGoogle Map
Live Air TrafficLiveATC.net
METARSCBA 221800Z 31021KT 9999 FEW030 BKN200 03/M02 Q1016
2019-07-22 18:00:00 Wind: West-Northwest (310°) 10.8 m/s - Visibility: > 10000 m - Temperature: 3 °C - Dew point: -2 °C - Humidity: 70% - Pressure: 1016 hPa
Statistics

The table below shows the detailed information of all flights to/from Balmaceda, Balmaceda Airport (SCBA).